Aérodrome :







RETROUVEZ-NOUS SUR...

 
LOGIN :

S'inscrire | Disclaimer

   EN    FR    IT 

 









Légende :    VFR   VFR Marginal   IFR   IFR Intensif   IFR Très Intensif
Visi : 
Plafond : 
>= 8 km
>= 3000ft
5 à 8 km
1000 à 3000 ft
1500m à 5 km
500 à 1000 ft
800 à 1500m
200 à 500 ft
< 800m
< 200 ft
Symboles :   Orages  Brouillard  Fortes neiges  Fortes précipitations  Vent > 20 kt






- Altitude de l'aérodrome : 477 ft
- Code IATA : YHZ


CYHZ - Halifax Stanfield Int.

DERNIER METAR :
  • 141300Z 01010KT 12SM OVC005 20/19 A2992 RMK ST8 SLP133 DENSITY ALT 1200FT

METARs EXPIRÉS :
  • 141248Z 03008KT 12SM OVC005 20/19 A2992 RMK ST8 SLP133 DENSITY ALT 1200FT
  • 141200Z 01007KT 10SM BKN004 OVC220 19/19 A2992 RMK ST7CI1 SLP131 DENSITY ALT 1100FT
  • 141117Z 36007KT 10SM BKN003 OVC220 19/19 A2991 RMK ST7CI1 SLP128 DENSITY ALT 1100FT
  • 141034Z 34007KT 8SM FEW002 BKN220 19/19 A2989 RMK SF3CI4 SLP121 DENSITY ALT 1100FT
  • 141021Z 35007KT 2SM R14/3000VP6000FT/N BR OVC002 19/19 A2988 RMK ST8 SLP118 DENSITY ALT 1100FT

TAF TAF CYHZ
Valide du 14 à 12h jusqu'au 15 à 12h UTC


141138Z 1412/1512 34007KT P6SM BKN200
TEMPO 1412/1414 2SM BR OVC002
FM141400 01010KT P6SM FEW015 OVC040
TEMPO 1414/1418 5SM -SHRA BR BKN015 OVC040
FM141800 02012G22KT P6SM -SHRA OVC020
PROB30 1418/1422 VRB15G25KT 1SM TSRA BR BKN007 OVC020CB
FM142200 03012KT P6SM -RA OVC012
PROB30 1422/1512 2SM -RA BR OVC004 RMK NXT FCST BY 141500Z
FIR CZQM / Amérique du Nord



MET'MAP, la Météo Aéronautique d'un coup d'oeil ! - Copyright ORBIFLY Décembre 2007 - Disclaimer

ORBIFLY MET'MAP TEAM :

Programmation & Développement : Alexandra Zaïnal
Sur une idée originale de : Baudouin d'Aumeries
Assistance à la programmation : Marc-Olivier Méhu
Soutien technique & logistique : Manuel Goepfert

Contact : metmap@orbifly.com




SOURCES & CREDITS :

   NOAA